createdAt,value
2019-03-24T10:35:58.717Z,101.03
2019-03-24T10:38:28.666Z,88.97
2019-03-24T10:49:40.303Z,75.43
2019-03-24T10:52:10.235Z,70.43
2019-03-24T10:56:51.632Z,78.27
2019-03-24T10:59:21.579Z,83.77
2019-03-24T11:05:06.046Z,64.70
2019-03-24T11:07:35.232Z,81.63
2019-03-24T11:10:04.700Z,68.53
2019-03-24T11:12:33.903Z,69.73
2019-03-24T11:15:03.086Z,74.10
2019-03-24T11:17:33.034Z,64.53
2019-03-24T11:20:03.033Z,70.67
2019-03-24T11:22:32.936Z,71.57
2019-03-24T11:25:02.850Z,57.70
2019-03-24T11:27:32.787Z,76.00
2019-03-24T11:30:02.768Z,87.27
2019-03-24T11:32:32.726Z,76.27
2019-03-24T11:35:02.698Z,71.80
2019-03-24T11:37:32.648Z,73.57
2019-03-24T11:40:02.608Z,80.43
2019-03-24T11:42:32.557Z,72.90
2019-03-24T11:45:02.465Z,77.73
2019-03-24T11:47:32.401Z,74.43
2019-03-24T11:50:02.381Z,71.10
2019-03-24T11:52:32.357Z,70.33
2019-03-24T11:55:02.255Z,77.80
2019-03-24T11:57:32.151Z,78.80
2019-03-24T12:00:02.033Z,57.20
2019-03-24T12:02:32.016Z,62.83
2019-03-24T12:05:01.897Z,62.47
2019-03-24T12:07:31.885Z,67.30
2019-03-24T12:10:01.860Z,65.40
2019-03-24T12:12:31.847Z,58.67
2019-03-24T12:15:01.804Z,73.10
2019-03-24T12:17:31.818Z,76.13
2019-03-24T12:20:01.746Z,69.87
2019-03-24T12:22:31.746Z,69.37
2019-03-24T12:25:01.728Z,69.33
2019-03-24T12:27:31.695Z,82.53
2019-03-24T12:30:01.707Z,83.83
2019-03-24T12:32:31.598Z,70.63
2019-03-24T12:35:03.295Z,70.93
2019-03-24T12:37:33.319Z,72.23
2019-03-24T12:40:03.365Z,76.53
2019-03-24T12:42:33.326Z,68.13
2019-03-24T12:45:03.285Z,69.63
2019-03-24T12:47:33.232Z,66.13
2019-03-24T12:50:08.654Z,70.07
2019-03-24T12:52:34.867Z,69.90
2019-03-24T12:55:04.873Z,67.67
2019-03-24T12:57:34.785Z,64.80
2019-03-24T13:00:05.852Z,61.30
2019-03-24T13:02:35.786Z,65.17
2019-03-24T13:05:06.610Z,72.90
2019-03-24T13:07:36.545Z,63.30
2019-03-24T13:10:07.086Z,67.10
2019-03-24T13:12:37.024Z,71.67
2019-03-24T13:15:07.903Z,68.47
2019-03-24T13:17:37.849Z,58.40
2019-03-24T13:20:19.569Z,57.03
2019-03-24T13:22:40.080Z,63.93
2019-03-24T13:25:10.125Z,66.57
2019-03-24T13:27:40.095Z,58.40
2019-03-24T13:30:10.492Z,57.97
2019-03-24T13:32:40.514Z,58.83
2019-03-24T13:35:10.525Z,53.23
2019-03-24T13:37:40.550Z,54.37
2019-03-24T13:40:10.476Z,58.30
2019-03-24T13:42:40.546Z,54.70
2019-03-24T13:45:10.596Z,75.83
2019-03-24T13:47:40.584Z,46.83
2019-03-24T13:50:10.534Z,69.17
2019-03-24T13:52:40.521Z,59.10
2019-03-24T13:55:10.514Z,61.87
2019-03-24T13:57:40.549Z,58.63
2019-03-24T14:00:11.613Z,49.20
2019-03-24T14:02:41.533Z,71.23
2019-03-24T14:05:11.519Z,63.97
2019-03-24T14:07:41.378Z,60.40
2019-03-24T14:10:11.411Z,58.93
2019-03-24T14:12:41.436Z,53.63
2019-03-24T14:15:11.461Z,54.70
2019-03-24T14:17:41.378Z,63.00
2019-03-24T14:20:11.546Z,57.03
2019-03-24T14:22:41.538Z,52.87
2019-03-24T14:25:11.481Z,58.20
2019-03-24T14:27:41.495Z,57.07
2019-03-24T14:30:11.846Z,63.87
2019-03-24T14:32:41.771Z,64.33
2019-03-24T14:35:11.940Z,53.43
2019-03-24T14:37:41.936Z,56.63
2019-03-24T14:40:11.958Z,55.53
2019-03-24T14:42:41.968Z,62.67
2019-03-24T14:45:12.048Z,51.97
2019-03-24T14:47:42.091Z,51.90
2019-03-24T14:50:12.207Z,49.17
2019-03-24T14:52:42.248Z,47.50
2019-03-24T14:55:12.248Z,55.00
2019-03-24T14:57:42.178Z,58.17
2019-03-24T15:00:12.482Z,50.90
2019-03-24T15:02:42.427Z,58.80
2019-03-24T15:05:12.863Z,54.60
2019-03-24T15:07:42.838Z,60.47
2019-03-24T15:10:12.850Z,54.27
2019-03-24T15:12:42.866Z,51.87
2019-03-24T15:15:12.782Z,57.97
2019-03-24T15:17:42.766Z,58.73
2019-03-24T15:20:12.706Z,58.50
2019-03-24T15:22:42.563Z,51.00
2019-03-24T15:25:12.654Z,38.17
2019-03-24T15:27:42.569Z,55.50
2019-03-24T15:30:12.831Z,53.10
2019-03-24T15:32:42.783Z,53.20
2019-03-24T15:35:12.782Z,49.73
2019-03-24T15:37:42.829Z,49.60
2019-03-24T15:40:12.983Z,54.30
2019-03-24T15:42:42.893Z,55.27
2019-03-24T15:45:13.160Z,48.63
2019-03-24T15:47:43.449Z,49.90
2019-03-24T15:50:13.682Z,54.83
2019-03-24T15:52:43.669Z,47.80
2019-03-24T15:55:13.689Z,48.37
2019-03-24T15:57:43.700Z,44.83
2019-03-24T16:00:14.618Z,41.40
2019-03-24T16:02:44.562Z,33.23
2019-03-24T16:05:14.528Z,42.10
2019-03-24T16:07:44.523Z,48.00
2019-03-24T16:10:14.608Z,37.00
2019-03-24T16:12:44.531Z,32.20
2019-03-24T16:15:14.527Z,42.07
2019-03-24T16:17:44.553Z,38.97
2019-03-24T16:20:14.556Z,32.37
2019-03-24T16:22:44.529Z,31.57
2019-03-24T16:25:14.420Z,33.13
2019-03-24T16:27:44.345Z,30.00
2019-03-24T16:30:14.632Z,37.67
2019-03-24T16:32:44.595Z,29.63
2019-03-24T16:35:14.568Z,29.83
2019-03-24T16:37:44.574Z,31.90
2019-03-24T16:40:14.592Z,27.90
2019-03-24T16:42:44.542Z,25.80
2019-03-24T16:45:14.628Z,25.63
2019-03-24T16:47:44.541Z,21.50
2019-03-24T16:50:14.545Z,19.43
2019-03-24T16:52:44.545Z,16.87
2019-03-24T16:55:14.534Z,25.97
2019-03-24T16:57:44.493Z,25.40
2019-03-24T17:00:14.487Z,27.97
2019-03-24T17:02:44.460Z,30.67
2019-03-24T17:05:14.586Z,24.37
2019-03-24T17:07:44.565Z,29.55
2019-03-24T17:10:14.754Z,33.23
2019-03-24T17:12:44.710Z,29.20
2019-03-24T17:15:14.787Z,26.87
2019-03-24T17:17:44.728Z,26.02
2019-03-24T17:20:14.840Z,30.03
2019-03-24T17:39:33.866Z,35.25
2019-03-24T17:42:03.927Z,27.87
2019-03-24T17:44:33.964Z,29.20
2019-03-24T17:47:04.145Z,33.73
2019-03-24T17:49:35.403Z,30.37
2019-03-24T17:52:05.688Z,31.05
2019-03-24T17:54:36.627Z,27.15
2019-03-24T17:57:07.047Z,29.85
2019-03-24T17:59:37.182Z,32.33
2019-03-24T18:02:14.221Z,30.23
2019-03-24T18:04:39.543Z,35.65
2019-03-24T18:07:09.745Z,33.25
2019-03-24T18:09:40.117Z,31.48
2019-03-24T18:12:10.790Z,38.35
2019-03-24T18:14:40.882Z,43.80
2019-03-24T18:17:11.004Z,104.80
2019-03-24T18:19:41.294Z,85.47
2019-03-24T18:22:12.064Z,56.55
2019-03-24T18:24:42.432Z,32.67
2019-03-24T18:30:03.163Z,30.70
2019-03-24T18:32:34.598Z,45.98
2019-03-24T18:35:05.722Z,40.10
2019-03-24T18:37:35.813Z,30.12
2019-03-24T18:40:07.318Z,42.27
2019-03-24T18:42:37.743Z,34.65
2019-03-24T18:45:09.852Z,34.23
2019-03-24T18:47:41.144Z,33.42
2019-03-24T18:50:12.413Z,32.65
2019-03-24T18:52:45.354Z,36.88
2019-03-24T18:55:16.284Z,29.20
2019-03-24T18:57:47.218Z,37.88
2019-03-24T19:00:19.636Z,30.75
2019-03-24T19:02:50.497Z,36.60
2019-03-24T19:05:20.989Z,35.83
2019-03-24T19:07:51.385Z,32.83
2019-03-24T19:10:22.444Z,38.58
2019-03-24T19:12:53.087Z,39.15
2019-03-24T19:15:24.401Z,26.70
2019-03-24T19:17:55.134Z,40.17
2019-03-24T19:20:25.906Z,27.93
2019-03-24T19:22:56.704Z,28.15
2019-03-24T19:25:27.145Z,27.37
2019-03-24T19:27:58.010Z,33.15
2019-03-24T19:30:37.009Z,32.83
2019-03-24T19:33:08.145Z,35.33
2019-03-24T19:35:38.829Z,24.10
2019-03-24T19:38:09.706Z,25.57
2019-03-24T19:40:40.373Z,33.73
2019-03-24T19:43:11.920Z,31.30
2019-03-24T19:45:42.935Z,35.05
2019-03-24T19:48:13.633Z,41.63
2019-03-24T19:50:44.655Z,29.77
2019-03-24T19:53:15.387Z,32.75
2019-03-24T19:55:46.036Z,32.55
2019-03-24T19:58:19.088Z,28.15
2019-03-24T20:00:50.020Z,36.80
2019-03-24T20:03:20.761Z,28.80
2019-03-24T20:05:51.162Z,31.82
2019-03-24T20:08:21.664Z,33.67
2019-03-24T20:10:52.129Z,37.65
2019-03-24T20:13:22.746Z,27.37
2019-03-24T20:15:53.451Z,28.12
2019-03-24T20:18:27.182Z,38.02
2019-03-24T20:20:57.730Z,38.85
2019-03-24T20:23:28.716Z,34.92
2019-03-24T20:25:59.254Z,27.98
2019-03-24T20:28:30.182Z,32.60
2019-03-24T20:31:02.481Z,39.13
2019-03-24T20:33:33.265Z,32.63
2019-03-24T20:36:04.143Z,27.77
2019-03-24T20:38:35.178Z,29.63
2019-03-24T20:41:05.495Z,33.02
2019-03-24T20:43:36.341Z,33.70
2019-03-24T20:46:06.913Z,40.60
2019-03-24T20:48:40.235Z,28.57
2019-03-24T20:51:10.905Z,26.12
2019-03-24T20:53:41.199Z,32.58
2019-03-24T20:56:11.564Z,27.55
2019-03-24T20:58:44.730Z,25.75
2019-03-24T21:01:15.453Z,28.20
2019-03-24T21:03:48.027Z,23.65
2019-03-24T21:06:19.210Z,32.20
2019-03-24T21:08:49.670Z,20.57
2019-03-24T21:11:19.658Z,18.45
2019-03-24T21:13:49.657Z,20.97
2019-03-24T21:16:19.690Z,22.98
2019-03-24T21:18:51.070Z,17.67
2019-03-24T21:21:21.304Z,18.32
2019-03-24T21:23:51.268Z,10.88
2019-03-24T21:26:21.319Z,13.90
2019-03-24T21:28:51.280Z,14.40
2019-03-24T21:31:21.267Z,9.95
2019-03-24T21:33:51.261Z,12.37
2019-03-24T21:36:21.246Z,10.20
2019-03-24T21:38:51.192Z,9.58
2019-03-24T21:41:24.264Z,8.45
2019-03-24T21:43:57.061Z,11.08
2019-03-24T21:46:27.034Z,6.92
2019-03-24T21:48:57.805Z,19.87
2019-03-24T21:51:27.843Z,8.38
2019-03-24T21:53:57.705Z,12.58
2019-03-24T21:56:27.611Z,8.50
2019-03-24T21:58:57.518Z,12.43
2019-03-24T22:01:27.490Z,12.00
2019-03-24T22:03:57.619Z,11.50
2019-03-24T22:06:27.560Z,7.60
2019-03-24T22:08:57.622Z,9.38
2019-03-24T22:11:27.579Z,9.60
2019-03-24T22:13:57.560Z,7.12
2019-03-24T22:16:27.441Z,7.90
2019-03-24T22:18:57.398Z,10.60
2019-03-24T22:21:27.319Z,13.03
2019-03-24T22:23:57.315Z,7.35
2019-03-24T22:26:27.190Z,9.73
2019-03-24T22:28:57.283Z,7.55
2019-03-24T22:31:27.269Z,9.15
2019-03-24T22:33:57.255Z,12.90
2019-03-24T22:36:27.283Z,7.58
2019-03-24T22:38:57.274Z,17.55
2019-03-24T22:41:27.273Z,7.42
2019-03-24T22:43:57.215Z,16.93
2019-03-24T22:46:27.153Z,13.00
2019-03-24T22:48:57.120Z,12.82
2019-03-24T22:51:27.119Z,12.88
2019-03-24T22:54:03.302Z,26.65
2019-03-24T22:56:30.295Z,11.57
2019-03-24T22:59:00.141Z,8.78
2019-03-24T23:01:30.044Z,14.05
2019-03-24T23:03:59.951Z,11.60
2019-03-24T23:06:29.898Z,14.45
2019-03-24T23:08:59.803Z,9.08
2019-03-24T23:11:29.727Z,11.12
2019-03-24T23:13:59.689Z,14.18
2019-03-24T23:16:32.543Z,8.75
2019-03-24T23:19:02.580Z,11.08
2019-03-24T23:21:32.628Z,6.55
2019-03-24T23:24:02.641Z,10.30
2019-03-24T23:26:32.632Z,10.18
2019-03-24T23:29:02.591Z,6.33
2019-03-24T23:31:34.088Z,6.17
2019-03-24T23:34:04.325Z,6.80
2019-03-24T23:36:34.334Z,6.40
2019-03-24T23:39:05.542Z,11.48
2019-03-24T23:41:35.490Z,5.78
2019-03-24T23:44:05.434Z,8.08
2019-03-24T23:46:35.327Z,9.38
2019-03-24T23:49:05.334Z,9.35
2019-03-24T23:51:35.235Z,5.62
2019-03-24T23:54:05.241Z,6.30
2019-03-24T23:56:35.287Z,7.10
2019-03-24T23:59:05.273Z,10.32
